createdAt,value
2022-08-30T00:02:25.720Z,76.39
2022-08-30T00:04:55.564Z,76.46
2022-08-30T00:07:25.413Z,76.59
2022-08-30T00:09:54.044Z,76.54
2022-08-30T00:12:22.702Z,76.53
2022-08-30T00:14:51.516Z,76.66
2022-08-30T00:17:20.704Z,76.70
2022-08-30T00:19:51.160Z,76.91
2022-08-30T00:22:20.003Z,76.91
2022-08-30T00:24:49.677Z,76.81
2022-08-30T00:27:18.001Z,77.31
2022-08-30T00:29:47.092Z,77.33
2022-08-30T00:32:16.464Z,77.12
2022-08-30T00:34:45.086Z,77.09
2022-08-30T00:37:15.526Z,77.12
2022-08-30T00:39:44.392Z,76.86
2022-08-30T00:42:13.805Z,76.53
2022-08-30T00:44:43.335Z,76.73
2022-08-30T00:47:12.514Z,76.53
2022-08-30T00:49:44.008Z,76.49
2022-08-30T00:52:16.303Z,76.54
2022-08-30T00:54:46.849Z,76.66
2022-08-30T00:57:16.624Z,76.72
2022-08-30T00:59:48.335Z,76.83
2022-08-30T01:02:19.547Z,77.12
2022-08-30T01:04:49.015Z,77.03
2022-08-30T01:07:19.223Z,77.01
2022-08-30T01:09:48.091Z,76.86
2022-08-30T01:12:17.399Z,76.84
2022-08-30T01:14:47.556Z,76.80
2022-08-30T01:17:18.485Z,76.83
2022-08-30T01:19:55.358Z,76.84
2022-08-30T01:22:33.829Z,76.91
2022-08-30T01:25:08.372Z,76.75
2022-08-30T01:27:43.170Z,76.88
2022-08-30T01:30:13.262Z,76.80
2022-08-30T01:32:46.318Z,76.91
2022-08-30T01:35:17.785Z,77.03
2022-08-30T01:37:47.939Z,77.29
2022-08-30T01:40:19.371Z,77.07
2022-08-30T01:42:48.237Z,76.95
2022-08-30T01:45:16.829Z,76.97
2022-08-30T01:47:46.147Z,76.82
2022-08-30T01:50:14.909Z,76.60
2022-08-30T01:52:43.588Z,76.60
2022-08-30T01:55:12.387Z,76.23
2022-08-30T01:57:42.728Z,76.39
2022-08-30T02:00:12.550Z,76.27
2022-08-30T02:02:41.576Z,76.45
2022-08-30T02:05:11.315Z,76.40
2022-08-30T02:07:40.125Z,76.28
2022-08-30T02:10:09.687Z,76.23
2022-08-30T02:12:38.130Z,76.61
2022-08-30T02:15:10.255Z,76.91
2022-08-30T02:17:38.847Z,77.28
2022-08-30T02:20:08.698Z,77.60
2022-08-30T02:22:38.729Z,77.81
2022-08-30T02:25:20.864Z,77.90
2022-08-30T02:27:49.999Z,78.06
2022-08-30T02:30:20.178Z,78.02
2022-08-30T02:32:48.897Z,78.21
2022-08-30T02:35:17.605Z,77.98
2022-08-30T02:37:46.331Z,78.15
2022-08-30T02:40:14.967Z,78.05
2022-08-30T02:42:43.649Z,78.17
2022-08-30T02:45:12.778Z,77.98
2022-08-30T02:47:46.833Z,77.96
2022-08-30T02:50:16.420Z,77.81
2022-08-30T02:52:45.229Z,77.68
2022-08-30T02:55:18.449Z,77.67
2022-08-30T02:57:48.203Z,77.72
2022-08-30T03:00:20.885Z,77.61
2022-08-30T03:02:50.963Z,77.53
2022-08-30T03:05:20.286Z,77.44
2022-08-30T03:07:49.139Z,77.31
2022-08-30T03:10:18.730Z,77.35
2022-08-30T03:12:48.069Z,77.32
2022-08-30T03:15:18.101Z,77.27
2022-08-30T03:17:46.867Z,77.39
2022-08-30T03:20:16.899Z,77.16
2022-08-30T03:22:45.608Z,77.06
2022-08-30T03:25:15.069Z,77.13
2022-08-30T03:27:43.590Z,77.21
2022-08-30T03:30:13.083Z,77.07
2022-08-30T03:32:41.437Z,77.18
2022-08-30T03:35:12.636Z,76.93
2022-08-30T03:37:42.811Z,76.96
2022-08-30T03:40:14.343Z,76.83
2022-08-30T03:42:44.569Z,76.83
2022-08-30T03:45:14.150Z,76.98
2022-08-30T03:47:42.871Z,77.13
2022-08-30T03:50:13.238Z,76.96
2022-08-30T03:52:43.481Z,77.03
2022-08-30T03:55:12.049Z,77.04
2022-08-30T03:57:43.702Z,77.04
2022-08-30T04:00:15.201Z,77.24
2022-08-30T04:02:43.819Z,77.42
2022-08-30T04:05:13.006Z,77.29
2022-08-30T04:07:44.978Z,77.35
2022-08-30T04:10:13.765Z,77.77
2022-08-30T04:12:46.181Z,77.68
2022-08-30T04:15:19.781Z,77.70
2022-08-30T04:17:48.657Z,78.04
2022-08-30T04:20:18.349Z,78.12
2022-08-30T04:22:48.941Z,78.25
2022-08-30T04:25:17.870Z,78.01
2022-08-30T04:27:46.988Z,78.05
2022-08-30T04:30:17.677Z,78.21
2022-08-30T04:32:46.630Z,77.81
2022-08-30T04:35:15.670Z,78.03
2022-08-30T04:37:44.520Z,78.44
2022-08-30T04:40:15.406Z,78.29
2022-08-30T04:42:45.082Z,78.10
2022-08-30T04:45:16.331Z,78.46
2022-08-30T04:47:45.341Z,78.27
2022-08-30T04:50:17.908Z,78.07
2022-08-30T04:52:46.819Z,78.02
2022-08-30T04:55:20.266Z,78.07
2022-08-30T04:57:49.540Z,78.02
2022-08-30T05:00:21.199Z,77.91
2022-08-30T05:02:50.491Z,77.59
2022-08-30T05:05:29.212Z,77.26
2022-08-30T05:07:58.622Z,77.05
2022-08-30T05:10:28.891Z,77.00
2022-08-30T05:12:57.780Z,76.81
2022-08-30T05:15:26.379Z,76.70
2022-08-30T05:17:55.019Z,76.42
2022-08-30T05:20:23.602Z,76.04
2022-08-30T05:22:53.438Z,75.75
2022-08-30T05:25:24.988Z,75.55
2022-08-30T05:27:55.531Z,75.30
2022-08-30T05:30:25.361Z,75.36
2022-08-30T05:32:54.968Z,75.34
2022-08-30T05:35:25.746Z,74.85
2022-08-30T05:37:55.219Z,74.73
2022-08-30T05:40:24.067Z,74.39
2022-08-30T05:42:55.002Z,73.98
2022-08-30T05:45:24.168Z,73.57
2022-08-30T05:47:52.816Z,72.76
2022-08-30T05:50:21.879Z,72.41
2022-08-30T05:52:50.535Z,72.34
2022-08-30T05:55:22.105Z,72.22
2022-08-30T05:57:51.329Z,71.83
2022-08-30T06:00:21.857Z,71.52
2022-08-30T06:02:55.172Z,71.18
2022-08-30T06:05:24.021Z,70.92
2022-08-30T06:07:53.090Z,70.59
2022-08-30T06:10:21.880Z,70.01
2022-08-30T06:12:50.520Z,69.58
2022-08-30T06:15:19.270Z,69.06
2022-08-30T06:17:49.468Z,68.70
2022-08-30T06:20:20.559Z,68.63
2022-08-30T06:22:49.308Z,68.03
2022-08-30T06:25:19.517Z,67.95
2022-08-30T06:27:48.227Z,68.00
2022-08-30T06:30:17.339Z,67.32
2022-08-30T06:32:49.188Z,67.02
2022-08-30T06:35:17.878Z,66.31
2022-08-30T06:37:46.534Z,65.75
2022-08-30T06:40:17.837Z,65.22
2022-08-30T06:42:46.592Z,65.33
2022-08-30T06:45:15.707Z,64.89
2022-08-30T06:47:45.329Z,64.25
2022-08-30T06:50:19.215Z,63.82
2022-08-30T06:52:48.488Z,63.45
2022-08-30T06:55:18.814Z,63.12
2022-08-30T06:57:48.525Z,62.27
2022-08-30T07:00:18.975Z,62.14
2022-08-30T07:02:47.593Z,61.97
2022-08-30T07:05:19.090Z,61.45
2022-08-30T07:07:47.893Z,61.04
2022-08-30T07:10:19.041Z,60.64
2022-08-30T07:12:48.153Z,60.67
2022-08-30T07:15:20.658Z,59.69
2022-08-30T07:17:59.013Z,59.40
2022-08-30T07:20:39.879Z,59.61
2022-08-30T07:23:10.757Z,58.92
2022-08-30T07:25:39.942Z,58.08
2022-08-30T07:28:09.823Z,57.49
2022-08-30T07:30:39.632Z,57.24
2022-08-30T07:33:08.559Z,57.05
2022-08-30T07:35:38.783Z,56.52
2022-08-30T07:38:08.329Z,56.32
2022-08-30T07:40:39.327Z,56.01
2022-08-30T07:43:08.166Z,56.25
2022-08-30T07:45:38.694Z,56.06
2022-08-30T07:48:07.575Z,55.61
2022-08-30T07:50:36.113Z,54.02
2022-08-30T07:53:09.249Z,53.42
2022-08-30T07:55:39.671Z,53.37
2022-08-30T07:58:08.283Z,53.44
2022-08-30T08:00:37.010Z,53.38
2022-08-30T08:03:09.430Z,53.30
2022-08-30T08:05:39.727Z,53.33
2022-08-30T08:08:11.093Z,53.36
2022-08-30T08:10:40.647Z,53.54
2022-08-30T08:13:09.134Z,53.24
2022-08-30T08:15:38.526Z,53.36
2022-08-30T08:18:08.695Z,53.63
2022-08-30T08:20:38.248Z,53.96
2022-08-30T08:23:06.850Z,54.03
2022-08-30T08:25:40.880Z,53.81
2022-08-30T08:28:09.996Z,53.84
2022-08-30T08:30:41.562Z,52.97
2022-08-30T08:33:13.617Z,53.02
2022-08-30T08:35:42.571Z,53.05
2022-08-30T08:38:11.362Z,52.42
2022-08-30T08:40:50.015Z,52.66
2022-08-30T08:43:22.980Z,52.99
2022-08-30T08:45:59.417Z,52.01
2022-08-30T08:48:58.430Z,51.32
2022-08-30T08:51:39.411Z,49.38
2022-08-30T08:54:14.474Z,50.03
2022-08-30T08:56:44.741Z,50.33
2022-08-30T08:59:16.171Z,49.59
2022-08-30T09:01:44.973Z,49.55
2022-08-30T09:04:20.618Z,50.56
2022-08-30T09:06:56.793Z,50.17
2022-08-30T09:09:31.343Z,49.01
2022-08-30T09:12:01.972Z,48.93
2022-08-30T09:14:35.462Z,50.04
2022-08-30T09:17:06.905Z,49.07
2022-08-30T09:19:46.653Z,48.09
2022-08-30T09:22:23.623Z,47.57
2022-08-30T09:24:55.699Z,48.57
2022-08-30T09:27:30.671Z,49.05
2022-08-30T09:30:03.363Z,49.64
2022-08-30T09:32:36.681Z,47.65
2022-08-30T09:35:08.296Z,45.60
2022-08-30T09:37:41.324Z,45.84
2022-08-30T09:40:14.795Z,46.78
2022-08-30T09:43:02.017Z,46.55
2022-08-30T09:45:33.836Z,46.02
2022-08-30T09:48:02.494Z,45.52
2022-08-30T09:50:36.625Z,45.88
2022-08-30T09:53:13.703Z,45.85
2022-08-30T09:55:54.767Z,45.22
2022-08-30T09:58:40.723Z,45.10
2022-08-30T10:01:16.264Z,45.25
2022-08-30T10:03:51.641Z,45.44
2022-08-30T10:06:30.284Z,45.51
2022-08-30T10:09:13.582Z,45.00
2022-08-30T10:11:49.772Z,45.30
2022-08-30T10:14:47.333Z,46.58
2022-08-30T10:17:30.174Z,47.42
2022-08-30T10:20:13.674Z,46.85
2022-08-30T10:22:48.493Z,45.38
2022-08-30T10:25:24.522Z,43.88
2022-08-30T10:27:58.846Z,44.17
2022-08-30T10:30:29.984Z,43.90
2022-08-30T10:33:05.165Z,44.55
2022-08-30T10:35:40.473Z,45.94
2022-08-30T10:38:15.975Z,46.11
2022-08-30T10:40:59.404Z,44.18
2022-08-30T10:43:33.922Z,43.76
2022-08-30T10:46:10.832Z,43.89
2022-08-30T10:48:44.654Z,44.15
2022-08-30T10:51:22.781Z,44.37
2022-08-30T10:53:56.459Z,44.29
2022-08-30T10:56:29.904Z,44.00
2022-08-30T10:59:00.176Z,44.74
2022-08-30T11:01:50.131Z,45.17
2022-08-30T11:04:37.015Z,43.90
2022-08-30T11:07:21.642Z,43.21
2022-08-30T11:10:15.701Z,42.93
2022-08-30T11:12:58.924Z,42.41
2022-08-30T11:15:32.759Z,42.50
2022-08-30T11:18:15.943Z,42.43
2022-08-30T11:20:47.691Z,42.56
2022-08-30T11:23:32.855Z,44.10
2022-08-30T11:26:05.492Z,43.22
2022-08-30T11:28:55.843Z,43.21
2022-08-30T11:31:43.260Z,43.23
2022-08-30T11:34:46.678Z,42.04
2022-08-30T11:37:36.909Z,41.54
2022-08-30T11:40:13.304Z,42.05
2022-08-30T11:42:48.142Z,41.33
2022-08-30T11:45:39.714Z,40.38
2022-08-30T11:48:11.262Z,40.04
2022-08-30T11:50:53.160Z,41.23
2022-08-30T11:53:33.789Z,41.78
2022-08-30T11:56:10.813Z,42.04
2022-08-30T11:58:50.940Z,41.66
2022-08-30T12:01:50.693Z,40.33
2022-08-30T12:04:38.866Z,39.66
2022-08-30T12:07:08.457Z,40.10
2022-08-30T12:10:03.412Z,40.90
2022-08-30T12:12:54.641Z,39.95
2022-08-30T12:15:57.421Z,39.06
2022-08-30T12:18:37.132Z,39.57
2022-08-30T12:21:28.097Z,41.01
2022-08-30T12:24:04.527Z,39.95
2022-08-30T12:26:38.201Z,38.72
2022-08-30T12:29:14.924Z,39.88
2022-08-30T12:31:48.549Z,39.55
2022-08-30T12:34:27.174Z,39.74
2022-08-30T12:36:59.483Z,40.10
2022-08-30T12:39:31.266Z,39.26
2022-08-30T12:42:17.573Z,38.58
2022-08-30T12:44:47.983Z,39.16
2022-08-30T12:47:20.981Z,38.52
2022-08-30T12:49:51.832Z,38.59
2022-08-30T12:52:24.484Z,39.98
2022-08-30T12:54:54.532Z,38.84
2022-08-30T12:57:38.773Z,38.42
2022-08-30T13:00:10.272Z,38.60
2022-08-30T13:02:52.182Z,39.88
2022-08-30T13:05:34.450Z,41.35
2022-08-30T13:08:16.602Z,41.21
2022-08-30T13:11:04.484Z,39.86
2022-08-30T13:13:41.304Z,38.47
2022-08-30T13:16:29.428Z,38.51
2022-08-30T13:19:27.582Z,38.34
2022-08-30T13:21:59.072Z,40.62
2022-08-30T13:24:28.090Z,40.96
2022-08-30T13:26:59.670Z,40.64
2022-08-30T13:29:29.952Z,39.17
2022-08-30T13:31:59.338Z,38.37
2022-08-30T13:34:33.429Z,37.87
2022-08-30T13:37:02.755Z,38.22
2022-08-30T13:39:31.183Z,38.60
2022-08-30T13:42:31.635Z,38.72
2022-08-30T13:44:48.492Z,40.55
2022-08-30T13:47:34.961Z,40.70
2022-08-30T13:50:07.556Z,39.83
2022-08-30T13:52:38.426Z,38.89
2022-08-30T13:55:08.554Z,39.28
2022-08-30T14:00:26.470Z,39.36
2022-08-30T14:02:59.841Z,38.00
2022-08-30T14:05:50.246Z,37.57
2022-08-30T14:11:16.035Z,37.31
2022-08-30T14:16:40.358Z,37.44
2022-08-30T14:19:12.826Z,37.91
2022-08-30T14:21:43.547Z,37.72
2022-08-30T14:24:20.141Z,37.79
2022-08-30T14:26:52.795Z,36.97
2022-08-30T14:29:25.076Z,36.69
2022-08-30T14:31:54.556Z,37.96
2022-08-30T14:34:23.755Z,38.69
2022-08-30T14:36:54.024Z,38.26
2022-08-30T14:39:23.384Z,37.77
2022-08-30T14:41:55.289Z,37.67
2022-08-30T14:44:25.572Z,37.43
2022-08-30T14:46:54.557Z,37.45
2022-08-30T14:49:24.586Z,37.18
2022-08-30T14:51:55.206Z,37.29
2022-08-30T14:54:27.373Z,37.37
2022-08-30T14:56:56.524Z,37.86
2022-08-30T14:59:26.053Z,38.12
2022-08-30T15:01:55.506Z,38.43
2022-08-30T15:04:24.232Z,38.25
2022-08-30T15:06:55.364Z,38.75
2022-08-30T15:09:26.194Z,38.43
2022-08-30T15:11:58.848Z,38.40
2022-08-30T15:14:28.191Z,38.57
2022-08-30T15:16:58.716Z,38.30
2022-08-30T15:19:28.016Z,38.53
2022-08-30T15:22:02.535Z,38.68
2022-08-30T15:24:32.665Z,38.45
2022-08-30T15:27:02.545Z,38.03
2022-08-30T15:29:31.975Z,38.41
2022-08-30T15:32:02.534Z,38.24
2022-08-30T15:34:32.294Z,39.04
2022-08-30T15:37:02.371Z,38.86
2022-08-30T15:39:32.725Z,39.01
2022-08-30T15:42:01.932Z,38.56
2022-08-30T15:44:31.739Z,39.02
2022-08-30T15:47:00.848Z,39.51
2022-08-30T15:49:29.607Z,39.69
2022-08-30T15:52:01.874Z,40.46
2022-08-30T15:54:32.515Z,41.40
2022-08-30T15:57:01.596Z,41.69
2022-08-30T15:59:32.457Z,42.26
2022-08-30T16:02:01.501Z,43.04
2022-08-30T16:04:30.235Z,43.36
2022-08-30T16:06:59.043Z,44.01
2022-08-30T16:09:29.994Z,44.11
2022-08-30T16:12:04.800Z,44.28
2022-08-30T16:14:33.926Z,44.79
2022-08-30T16:17:03.184Z,45.20
2022-08-30T16:19:31.769Z,44.53
2022-08-30T16:22:00.674Z,44.70
2022-08-30T16:24:29.420Z,44.63
2022-08-30T16:26:58.414Z,45.20
2022-08-30T16:29:28.523Z,45.39
2022-08-30T16:31:58.756Z,46.21
2022-08-30T16:34:27.454Z,46.82
2022-08-30T16:36:56.186Z,48.18
2022-08-30T16:39:25.014Z,49.23
2022-08-30T16:41:53.836Z,49.49
2022-08-30T16:44:22.486Z,50.20
2022-08-30T16:47:00.211Z,50.25
2022-08-30T16:49:28.975Z,49.89
2022-08-30T16:51:57.872Z,49.86
2022-08-30T16:54:27.026Z,49.38
2022-08-30T16:56:56.266Z,49.37
2022-08-30T16:59:26.125Z,49.46
2022-08-30T17:01:54.828Z,49.47
2022-08-30T17:04:25.015Z,49.44
2022-08-30T17:06:53.897Z,50.02
2022-08-30T17:09:22.691Z,50.59
2022-08-30T17:11:52.628Z,50.94
2022-08-30T17:14:28.083Z,52.39
2022-08-30T17:17:00.414Z,52.47
2022-08-30T17:19:31.321Z,51.88
2022-08-30T17:22:00.626Z,52.08
2022-08-30T17:24:29.997Z,52.31
2022-08-30T17:26:58.712Z,52.26
2022-08-30T17:29:27.449Z,52.58
2022-08-30T17:31:56.919Z,53.05
2022-08-30T17:34:27.149Z,53.29
2022-08-30T17:37:00.349Z,53.29
2022-08-30T17:39:30.366Z,53.36
2022-08-30T17:42:00.940Z,53.49
2022-08-30T17:44:30.219Z,53.36
2022-08-30T17:46:59.946Z,53.25
2022-08-30T17:49:29.479Z,53.87
2022-08-30T17:51:59.465Z,54.10
2022-08-30T17:54:30.210Z,54.25
2022-08-30T17:57:00.829Z,54.31
2022-08-30T17:59:31.774Z,54.44
2022-08-30T18:02:02.657Z,54.53
2022-08-30T18:04:31.645Z,54.70
2022-08-30T18:07:01.604Z,54.70
2022-08-30T18:09:34.055Z,54.74
2022-08-30T18:12:03.225Z,54.78
2022-08-30T18:14:31.895Z,54.60
2022-08-30T18:17:00.897Z,54.54
2022-08-30T18:19:30.789Z,54.46
2022-08-30T18:22:03.316Z,54.40
2022-08-30T18:24:32.699Z,54.18
2022-08-30T18:27:03.434Z,54.18
2022-08-30T18:29:32.433Z,54.10
2022-08-30T18:32:01.162Z,53.90
2022-08-30T18:34:30.290Z,53.90
2022-08-30T18:36:59.039Z,53.89
2022-08-30T18:39:34.444Z,54.41
2022-08-30T18:42:04.610Z,54.26
2022-08-30T18:44:34.769Z,54.24
2022-08-30T18:47:05.825Z,53.94
2022-08-30T18:49:35.926Z,53.74
2022-08-30T18:52:07.628Z,53.55
2022-08-30T18:54:42.150Z,53.34
2022-08-30T18:57:12.580Z,53.09
2022-08-30T18:59:42.028Z,53.17
2022-08-30T19:02:12.100Z,53.00
2022-08-30T19:04:42.960Z,53.15
2022-08-30T19:07:13.639Z,53.44
2022-08-30T19:09:45.811Z,53.64
2022-08-30T19:12:14.781Z,53.46
2022-08-30T19:14:45.198Z,53.71
2022-08-30T19:17:14.700Z,53.51
2022-08-30T19:19:46.457Z,53.56
2022-08-30T19:22:21.698Z,53.81
2022-08-30T19:24:53.406Z,53.91
2022-08-30T19:27:38.253Z,53.85
2022-08-30T19:30:17.397Z,53.85
2022-08-30T19:32:50.907Z,53.75
2022-08-30T19:35:20.407Z,53.53
2022-08-30T19:37:49.190Z,53.53
2022-08-30T19:40:21.456Z,53.56
2022-08-30T19:42:52.589Z,53.42
2022-08-30T19:45:23.321Z,53.61
2022-08-30T19:47:53.708Z,53.48
2022-08-30T19:50:23.573Z,53.96
2022-08-30T19:52:54.764Z,53.75
2022-08-30T19:55:30.051Z,53.81
2022-08-30T19:58:00.412Z,54.28
2022-08-30T20:00:30.665Z,54.95
2022-08-30T20:03:01.708Z,55.28
2022-08-30T20:05:31.856Z,55.59
2022-08-30T20:08:01.237Z,55.54
2022-08-30T20:10:31.419Z,55.61
2022-08-30T20:13:00.156Z,55.18
2022-08-30T20:15:29.183Z,55.03
2022-08-30T20:18:05.457Z,54.88
2022-08-30T20:20:36.946Z,55.12
2022-08-30T20:23:07.091Z,55.73
2022-08-30T20:25:38.101Z,56.40
2022-08-30T20:28:08.368Z,56.71
2022-08-30T20:30:37.874Z,56.10
2022-08-30T20:33:09.113Z,56.31
2022-08-30T20:35:38.780Z,56.62
2022-08-30T20:38:08.175Z,56.88
2022-08-30T20:40:41.851Z,56.62
2022-08-30T20:43:11.152Z,56.31
2022-08-30T20:45:41.067Z,57.30
2022-08-30T20:48:11.563Z,58.33
2022-08-30T20:50:42.069Z,58.21
2022-08-30T20:53:13.464Z,58.73
2022-08-30T20:55:47.742Z,58.44
2022-08-30T20:58:18.164Z,58.23
2022-08-30T21:00:53.107Z,58.53
2022-08-30T21:03:26.378Z,58.85
2022-08-30T21:05:58.491Z,59.29
2022-08-30T21:08:27.297Z,59.18
2022-08-30T21:10:59.143Z,59.72
2022-08-30T21:13:29.613Z,60.58
2022-08-30T21:16:03.689Z,60.79
2022-08-30T21:18:35.609Z,61.10
2022-08-30T21:21:12.162Z,62.01
2022-08-30T21:23:43.357Z,62.19
2022-08-30T21:26:15.882Z,62.67
2022-08-30T21:28:47.047Z,62.93
2022-08-30T21:31:18.299Z,62.88
2022-08-30T21:33:48.466Z,62.97
2022-08-30T21:36:27.631Z,62.78
2022-08-30T21:39:00.984Z,62.93
2022-08-30T21:41:32.059Z,63.14
2022-08-30T21:44:02.911Z,63.24
2022-08-30T21:46:32.976Z,62.58
2022-08-30T21:49:02.888Z,62.30
2022-08-30T21:51:34.409Z,62.24
2022-08-30T21:54:04.806Z,62.26
2022-08-30T21:56:34.727Z,62.21
2022-08-30T21:59:03.447Z,62.52
2022-08-30T22:01:33.245Z,62.45
2022-08-30T22:04:03.706Z,62.43
2022-08-30T22:06:34.338Z,61.91
2022-08-30T22:09:05.308Z,62.05
2022-08-30T22:11:36.178Z,62.53
2022-08-30T22:14:05.202Z,62.69
2022-08-30T22:16:33.977Z,63.29
2022-08-30T22:19:03.665Z,63.52
2022-08-30T22:21:34.287Z,63.89
2022-08-30T22:24:03.797Z,64.23
2022-08-30T22:26:33.118Z,64.26
2022-08-30T22:29:03.539Z,64.01
2022-08-30T22:31:32.214Z,63.81
2022-08-30T22:34:00.806Z,64.03
2022-08-30T22:36:32.839Z,64.47
2022-08-30T22:39:03.130Z,64.60
2022-08-30T22:41:35.259Z,64.74
2022-08-30T22:44:06.608Z,64.68
2022-08-30T22:46:35.800Z,64.80
2022-08-30T22:49:05.349Z,64.40
2022-08-30T22:51:34.288Z,64.31
2022-08-30T22:54:03.841Z,64.26
2022-08-30T22:56:32.187Z,64.34
2022-08-30T22:59:00.687Z,64.36
2022-08-30T23:01:32.625Z,64.38
2022-08-30T23:04:02.495Z,64.53
2022-08-30T23:06:31.676Z,64.84
2022-08-30T23:09:00.348Z,65.03
2022-08-30T23:11:31.860Z,65.37
2022-08-30T23:14:02.487Z,65.49
2022-08-30T23:16:33.916Z,65.92
2022-08-30T23:19:02.447Z,66.28
2022-08-30T23:21:31.788Z,66.63
2022-08-30T23:24:10.437Z,66.97
2022-08-30T23:26:49.850Z,67.14
2022-08-30T23:29:28.288Z,66.98
2022-08-30T23:32:08.445Z,66.16
2022-08-30T23:34:47.198Z,65.38
2022-08-30T23:37:25.536Z,65.24
2022-08-30T23:40:03.893Z,65.18
2022-08-30T23:42:42.320Z,64.59
2022-08-30T23:45:21.761Z,64.15
2022-08-30T23:48:01.582Z,64.15
2022-08-30T23:50:39.928Z,64.42
2022-08-30T23:53:18.478Z,64.99
2022-08-30T23:55:56.932Z,65.06
2022-08-30T23:58:35.628Z,64.83
